sensor_id;sensor_type;location;lat;lon;timestamp;P1;durP1;ratioP1;P2;durP2;ratioP2
24383;SDS011;12504;52.870;8.798;2024-02-16T00:00:44;3.97;;;2.95;;
24383;SDS011;12504;52.870;8.798;2024-02-16T00:03:12;3.65;;;2.60;;
24383;SDS011;12504;52.870;8.798;2024-02-16T00:05:37;3.88;;;2.38;;
24383;SDS011;12504;52.870;8.798;2024-02-16T00:08:03;6.07;;;3.10;;
24383;SDS011;12504;52.870;8.798;2024-02-16T00:10:29;3.72;;;2.65;;
24383;SDS011;12504;52.870;8.798;2024-02-16T00:12:55;4.65;;;2.65;;
24383;SDS011;12504;52.870;8.798;2024-02-16T00:15:22;8.30;;;3.13;;
24383;SDS011;12504;52.870;8.798;2024-02-16T00:17:48;7.03;;;2.72;;
24383;SDS011;12504;52.870;8.798;2024-02-16T00:20:14;5.40;;;3.10;;
24383;SDS011;12504;52.870;8.798;2024-02-16T00:22:40;5.40;;;2.83;;
24383;SDS011;12504;52.870;8.798;2024-02-16T00:25:06;5.18;;;2.75;;
24383;SDS011;12504;52.870;8.798;2024-02-16T00:27:32;6.85;;;3.00;;
24383;SDS011;12504;52.870;8.798;2024-02-16T00:29:57;4.35;;;2.00;;
24383;SDS011;12504;52.870;8.798;2024-02-16T00:32:23;5.18;;;2.63;;
24383;SDS011;12504;52.870;8.798;2024-02-16T00:34:55;6.07;;;2.55;;
24383;SDS011;12504;52.870;8.798;2024-02-16T00:37:23;6.32;;;3.00;;
24383;SDS011;12504;52.870;8.798;2024-02-16T00:39:49;11.93;;;2.90;;
24383;SDS011;12504;52.870;8.798;2024-02-16T00:42:15;4.97;;;2.67;;
24383;SDS011;12504;52.870;8.798;2024-02-16T00:44:41;10.77;;;2.45;;
24383;SDS011;12504;52.870;8.798;2024-02-16T00:47:06;4.32;;;2.30;;
24383;SDS011;12504;52.870;8.798;2024-02-16T00:49:34;5.75;;;2.63;;
24383;SDS011;12504;52.870;8.798;2024-02-16T00:52:00;9.10;;;2.90;;
24383;SDS011;12504;52.870;8.798;2024-02-16T00:54:27;5.68;;;2.42;;
24383;SDS011;12504;52.870;8.798;2024-02-16T00:56:52;7.68;;;3.20;;
24383;SDS011;12504;52.870;8.798;2024-02-16T00:59:19;5.75;;;2.65;;
24383;SDS011;12504;52.870;8.798;2024-02-16T01:01:46;7.28;;;3.30;;
24383;SDS011;12504;52.870;8.798;2024-02-16T01:04:12;6.63;;;3.17;;
24383;SDS011;12504;52.870;8.798;2024-02-16T01:06:37;4.43;;;2.63;;
24383;SDS011;12504;52.870;8.798;2024-02-16T01:09:03;4.25;;;2.35;;
24383;SDS011;12504;52.870;8.798;2024-02-16T01:11:29;6.28;;;2.72;;
24383;SDS011;12504;52.870;8.798;2024-02-16T01:13:55;3.65;;;2.03;;
24383;SDS011;12504;52.870;8.798;2024-02-16T01:16:21;11.82;;;2.72;;
24383;SDS011;12504;52.870;8.798;2024-02-16T01:18:46;4.50;;;2.28;;
24383;SDS011;12504;52.870;8.798;2024-02-16T01:21:12;5.05;;;2.55;;
24383;SDS011;12504;52.870;8.798;2024-02-16T01:23:37;2.90;;;1.92;;
24383;SDS011;12504;52.870;8.798;2024-02-16T01:26:03;7.75;;;1.88;;
24383;SDS011;12504;52.870;8.798;2024-02-16T01:28:29;6.57;;;2.50;;
24383;SDS011;12504;52.870;8.798;2024-02-16T01:30:54;4.50;;;2.00;;
24383;SDS011;12504;52.870;8.798;2024-02-16T01:33:21;7.90;;;2.45;;
24383;SDS011;12504;52.870;8.798;2024-02-16T01:35:47;5.18;;;2.47;;
24383;SDS011;12504;52.870;8.798;2024-02-16T01:38:13;2.75;;;1.63;;
24383;SDS011;12504;52.870;8.798;2024-02-16T01:40:38;3.97;;;2.42;;
24383;SDS011;12504;52.870;8.798;2024-02-16T01:43:04;3.65;;;2.15;;
24383;SDS011;12504;52.870;8.798;2024-02-16T01:45:30;3.97;;;1.65;;
24383;SDS011;12504;52.870;8.798;2024-02-16T01:47:56;5.03;;;2.15;;
24383;SDS011;12504;52.870;8.798;2024-02-16T01:50:22;3.90;;;2.15;;
24383;SDS011;12504;52.870;8.798;2024-02-16T01:52:48;4.60;;;2.95;;
24383;SDS011;12504;52.870;8.798;2024-02-16T01:55:15;6.38;;;3.22;;
24383;SDS011;12504;52.870;8.798;2024-02-16T01:57:44;5.55;;;2.42;;
24383;SDS011;12504;52.870;8.798;2024-02-16T02:00:13;8.02;;;2.22;;
24383;SDS011;12504;52.870;8.798;2024-02-16T02:02:45;6.93;;;2.40;;
24383;SDS011;12504;52.870;8.798;2024-02-16T02:05:12;4.90;;;2.25;;
24383;SDS011;12504;52.870;8.798;2024-02-16T02:07:38;8.32;;;2.50;;
24383;SDS011;12504;52.870;8.798;2024-02-16T02:10:04;7.35;;;2.40;;
24383;SDS011;12504;52.870;8.798;2024-02-16T02:12:30;5.20;;;2.05;;
24383;SDS011;12504;52.870;8.798;2024-02-16T02:14:55;4.68;;;2.60;;
24383;SDS011;12504;52.870;8.798;2024-02-16T02:17:21;5.18;;;2.05;;
24383;SDS011;12504;52.870;8.798;2024-02-16T02:19:47;4.82;;;2.05;;
24383;SDS011;12504;52.870;8.798;2024-02-16T02:22:15;5.22;;;2.35;;
24383;SDS011;12504;52.870;8.798;2024-02-16T02:24:42;4.75;;;1.70;;
24383;SDS011;12504;52.870;8.798;2024-02-16T02:27:09;4.00;;;2.00;;
24383;SDS011;12504;52.870;8.798;2024-02-16T02:29:35;2.85;;;1.60;;
24383;SDS011;12504;52.870;8.798;2024-02-16T02:32:00;8.77;;;2.17;;
24383;SDS011;12504;52.870;8.798;2024-02-16T02:34:26;6.80;;;2.65;;
24383;SDS011;12504;52.870;8.798;2024-02-16T02:36:52;2.92;;;2.03;;
24383;SDS011;12504;52.870;8.798;2024-02-16T02:39:18;7.03;;;2.63;;
24383;SDS011;12504;52.870;8.798;2024-02-16T02:41:44;2.83;;;1.92;;
24383;SDS011;12504;52.870;8.798;2024-02-16T02:44:09;4.03;;;2.60;;
24383;SDS011;12504;52.870;8.798;2024-02-16T02:46:36;3.28;;;2.20;;
24383;SDS011;12504;52.870;8.798;2024-02-16T02:49:02;3.17;;;1.75;;
24383;SDS011;12504;52.870;8.798;2024-02-16T02:51:28;3.88;;;1.90;;
24383;SDS011;12504;52.870;8.798;2024-02-16T02:53:54;3.53;;;1.55;;
24383;SDS011;12504;52.870;8.798;2024-02-16T02:56:20;4.85;;;2.22;;
24383;SDS011;12504;52.870;8.798;2024-02-16T02:58:46;5.32;;;1.85;;
24383;SDS011;12504;52.870;8.798;2024-02-16T03:01:12;6.47;;;2.15;;
24383;SDS011;12504;52.870;8.798;2024-02-16T03:03:41;6.45;;;2.45;;
24383;SDS011;12504;52.870;8.798;2024-02-16T03:06:08;8.13;;;2.15;;
24383;SDS011;12504;52.870;8.798;2024-02-16T03:08:34;6.65;;;2.50;;
24383;SDS011;12504;52.870;8.798;2024-02-16T03:11:00;4.45;;;2.13;;
24383;SDS011;12504;52.870;8.798;2024-02-16T03:13:27;7.00;;;2.60;;
24383;SDS011;12504;52.870;8.798;2024-02-16T03:15:53;4.38;;;2.05;;
24383;SDS011;12504;52.870;8.798;2024-02-16T03:18:19;5.57;;;2.20;;
24383;SDS011;12504;52.870;8.798;2024-02-16T03:20:44;5.20;;;2.03;;
24383;SDS011;12504;52.870;8.798;2024-02-16T03:23:13;2.75;;;1.70;;
24383;SDS011;12504;52.870;8.798;2024-02-16T03:25:39;3.08;;;2.50;;
24383;SDS011;12504;52.870;8.798;2024-02-16T03:28:05;3.47;;;2.00;;
24383;SDS011;12504;52.870;8.798;2024-02-16T03:30:33;3.95;;;1.77;;
24383;SDS011;12504;52.870;8.798;2024-02-16T03:32:59;5.30;;;2.47;;
24383;SDS011;12504;52.870;8.798;2024-02-16T03:35:24;4.47;;;2.22;;
24383;SDS011;12504;52.870;8.798;2024-02-16T03:37:50;3.65;;;2.53;;
24383;SDS011;12504;52.870;8.798;2024-02-16T03:40:16;4.32;;;1.75;;
24383;SDS011;12504;52.870;8.798;2024-02-16T03:42:43;4.00;;;2.15;;
24383;SDS011;12504;52.870;8.798;2024-02-16T03:45:09;7.80;;;2.33;;
24383;SDS011;12504;52.870;8.798;2024-02-16T03:47:34;3.00;;;2.13;;
24383;SDS011;12504;52.870;8.798;2024-02-16T03:50:00;4.35;;;1.95;;
24383;SDS011;12504;52.870;8.798;2024-02-16T03:52:27;4.88;;;2.13;;
24383;SDS011;12504;52.870;8.798;2024-02-16T03:54:52;6.60;;;2.30;;
24383;SDS011;12504;52.870;8.798;2024-02-16T03:57:18;3.97;;;2.35;;
24383;SDS011;12504;52.870;8.798;2024-02-16T03:59:43;4.35;;;2.40;;
24383;SDS011;12504;52.870;8.798;2024-02-16T04:02:09;6.30;;;2.28;;
24383;SDS011;12504;52.870;8.798;2024-02-16T04:04:36;4.25;;;2.47;;
24383;SDS011;12504;52.870;8.798;2024-02-16T04:07:02;7.85;;;2.13;;
24383;SDS011;12504;52.870;8.798;2024-02-16T04:09:29;4.68;;;2.35;;
24383;SDS011;12504;52.870;8.798;2024-02-16T04:11:55;6.28;;;2.22;;
24383;SDS011;12504;52.870;8.798;2024-02-16T04:14:21;3.65;;;2.08;;
24383;SDS011;12504;52.870;8.798;2024-02-16T04:16:47;4.75;;;2.03;;
24383;SDS011;12504;52.870;8.798;2024-02-16T04:19:12;2.50;;;1.65;;
24383;SDS011;12504;52.870;8.798;2024-02-16T04:21:38;3.28;;;2.15;;
24383;SDS011;12504;52.870;8.798;2024-02-16T04:24:03;3.55;;;2.00;;
24383;SDS011;12504;52.870;8.798;2024-02-16T04:26:29;5.38;;;2.45;;
24383;SDS011;12504;52.870;8.798;2024-02-16T04:28:55;3.05;;;2.13;;
24383;SDS011;12504;52.870;8.798;2024-02-16T04:31:20;4.43;;;2.13;;
24383;SDS011;12504;52.870;8.798;2024-02-16T04:33:46;4.80;;;2.15;;
24383;SDS011;12504;52.870;8.798;2024-02-16T04:36:12;5.45;;;2.20;;
24383;SDS011;12504;52.870;8.798;2024-02-16T04:38:37;2.25;;;1.73;;
24383;SDS011;12504;52.870;8.798;2024-02-16T04:41:06;4.60;;;2.33;;
24383;SDS011;12504;52.870;8.798;2024-02-16T04:43:33;11.95;;;3.28;;
24383;SDS011;12504;52.870;8.798;2024-02-16T04:45:59;3.97;;;2.25;;
24383;SDS011;12504;52.870;8.798;2024-02-16T04:48:25;4.93;;;2.10;;
24383;SDS011;12504;52.870;8.798;2024-02-16T04:50:50;4.45;;;1.92;;
24383;SDS011;12504;52.870;8.798;2024-02-16T04:53:16;5.25;;;2.13;;
24383;SDS011;12504;52.870;8.798;2024-02-16T04:55:42;4.15;;;1.77;;
24383;SDS011;12504;52.870;8.798;2024-02-16T04:58:08;3.67;;;2.30;;
24383;SDS011;12504;52.870;8.798;2024-02-16T05:00:37;2.65;;;1.85;;
24383;SDS011;12504;52.870;8.798;2024-02-16T05:03:03;5.40;;;2.83;;
24383;SDS011;12504;52.870;8.798;2024-02-16T05:05:29;3.55;;;1.77;;
24383;SDS011;12504;52.870;8.798;2024-02-16T05:07:55;4.97;;;2.03;;
24383;SDS011;12504;52.870;8.798;2024-02-16T05:10:22;2.88;;;1.80;;
24383;SDS011;12504;52.870;8.798;2024-02-16T05:12:47;3.05;;;1.65;;
24383;SDS011;12504;52.870;8.798;2024-02-16T05:15:13;6.10;;;1.90;;
24383;SDS011;12504;52.870;8.798;2024-02-16T05:17:40;2.65;;;1.90;;
24383;SDS011;12504;52.870;8.798;2024-02-16T05:20:10;3.92;;;1.85;;
24383;SDS011;12504;52.870;8.798;2024-02-16T05:22:41;2.90;;;2.03;;
24383;SDS011;12504;52.870;8.798;2024-02-16T05:25:11;2.63;;;1.77;;
24383;SDS011;12504;52.870;8.798;2024-02-16T05:27:37;3.95;;;2.15;;
24383;SDS011;12504;52.870;8.798;2024-02-16T05:30:03;2.05;;;1.35;;
24383;SDS011;12504;52.870;8.798;2024-02-16T05:32:33;4.53;;;1.90;;
24383;SDS011;12504;52.870;8.798;2024-02-16T05:35:00;4.40;;;1.60;;
24383;SDS011;12504;52.870;8.798;2024-02-16T05:37:29;3.67;;;1.75;;
24383;SDS011;12504;52.870;8.798;2024-02-16T05:39:57;4.57;;;2.00;;
24383;SDS011;12504;52.870;8.798;2024-02-16T05:42:33;6.78;;;1.88;;
24383;SDS011;12504;52.870;8.798;2024-02-16T05:44:59;3.97;;;1.83;;
24383;SDS011;12504;52.870;8.798;2024-02-16T05:47:25;3.00;;;1.90;;
24383;SDS011;12504;52.870;8.798;2024-02-16T05:49:51;4.03;;;1.83;;
24383;SDS011;12504;52.870;8.798;2024-02-16T05:52:16;3.25;;;1.85;;
24383;SDS011;12504;52.870;8.798;2024-02-16T05:54:42;4.25;;;1.85;;
24383;SDS011;12504;52.870;8.798;2024-02-16T05:57:09;2.53;;;1.80;;
24383;SDS011;12504;52.870;8.798;2024-02-16T05:59:35;3.70;;;1.80;;
24383;SDS011;12504;52.870;8.798;2024-02-16T06:02:00;3.75;;;1.65;;
24383;SDS011;12504;52.870;8.798;2024-02-16T06:04:26;4.20;;;1.98;;
24383;SDS011;12504;52.870;8.798;2024-02-16T06:06:51;4.20;;;2.25;;
24383;SDS011;12504;52.870;8.798;2024-02-16T06:09:19;5.35;;;2.08;;
24383;SDS011;12504;52.870;8.798;2024-02-16T06:11:44;3.40;;;1.95;;
24383;SDS011;12504;52.870;8.798;2024-02-16T06:14:10;2.80;;;1.63;;
24383;SDS011;12504;52.870;8.798;2024-02-16T06:16:36;3.20;;;1.58;;
24383;SDS011;12504;52.870;8.798;2024-02-16T06:19:01;4.40;;;1.70;;
24383;SDS011;12504;52.870;8.798;2024-02-16T06:21:27;3.88;;;1.98;;
24383;SDS011;12504;52.870;8.798;2024-02-16T06:23:52;4.32;;;1.63;;
24383;SDS011;12504;52.870;8.798;2024-02-16T06:26:18;3.05;;;1.65;;
24383;SDS011;12504;52.870;8.798;2024-02-16T06:28:45;2.35;;;1.52;;
24383;SDS011;12504;52.870;8.798;2024-02-16T06:31:12;4.85;;;1.65;;
24383;SDS011;12504;52.870;8.798;2024-02-16T06:33:39;1.80;;;1.40;;
24383;SDS011;12504;52.870;8.798;2024-02-16T06:36:05;3.28;;;2.08;;
24383;SDS011;12504;52.870;8.798;2024-02-16T06:38:32;5.22;;;1.77;;
24383;SDS011;12504;52.870;8.798;2024-02-16T06:40:57;3.13;;;1.60;;
24383;SDS011;12504;52.870;8.798;2024-02-16T06:43:23;3.30;;;1.95;;
24383;SDS011;12504;52.870;8.798;2024-02-16T06:45:49;7.50;;;1.90;;
24383;SDS011;12504;52.870;8.798;2024-02-16T06:48:14;5.47;;;2.15;;
24383;SDS011;12504;52.870;8.798;2024-02-16T06:50:40;5.57;;;1.63;;
24383;SDS011;12504;52.870;8.798;2024-02-16T06:53:05;6.60;;;3.30;;
24383;SDS011;12504;52.870;8.798;2024-02-16T06:55:31;6.57;;;2.92;;
24383;SDS011;12504;52.870;8.798;2024-02-16T06:57:56;8.15;;;3.13;;
24383;SDS011;12504;52.870;8.798;2024-02-16T07:00:22;4.20;;;2.35;;
24383;SDS011;12504;52.870;8.798;2024-02-16T07:02:47;6.85;;;2.58;;
24383;SDS011;12504;52.870;8.798;2024-02-16T07:05:13;4.85;;;2.50;;
24383;SDS011;12504;52.870;8.798;2024-02-16T07:07:40;4.78;;;2.88;;
24383;SDS011;12504;52.870;8.798;2024-02-16T07:10:06;4.47;;;1.73;;
24383;SDS011;12504;52.870;8.798;2024-02-16T07:12:33;3.00;;;1.95;;
24383;SDS011;12504;52.870;8.798;2024-02-16T07:14:59;5.38;;;1.80;;
24383;SDS011;12504;52.870;8.798;2024-02-16T07:17:24;1.83;;;1.20;;
24383;SDS011;12504;52.870;8.798;2024-02-16T07:19:50;3.72;;;1.80;;
24383;SDS011;12504;52.870;8.798;2024-02-16T07:22:15;2.88;;;1.70;;
24383;SDS011;12504;52.870;8.798;2024-02-16T07:24:41;5.72;;;2.00;;
24383;SDS011;12504;52.870;8.798;2024-02-16T07:27:06;5.55;;;1.52;;
24383;SDS011;12504;52.870;8.798;2024-02-16T07:29:32;2.85;;;1.67;;
24383;SDS011;12504;52.870;8.798;2024-02-16T07:31:59;3.67;;;1.70;;
24383;SDS011;12504;52.870;8.798;2024-02-16T07:34:25;2.53;;;1.70;;
24383;SDS011;12504;52.870;8.798;2024-02-16T07:36:50;4.57;;;2.20;;
24383;SDS011;12504;52.870;8.798;2024-02-16T07:39:17;4.63;;;2.13;;
24383;SDS011;12504;52.870;8.798;2024-02-16T07:41:42;2.47;;;1.65;;
24383;SDS011;12504;52.870;8.798;2024-02-16T07:44:08;4.45;;;1.40;;
24383;SDS011;12504;52.870;8.798;2024-02-16T07:46:39;3.83;;;1.80;;
24383;SDS011;12504;52.870;8.798;2024-02-16T07:49:05;3.47;;;2.10;;
24383;SDS011;12504;52.870;8.798;2024-02-16T07:51:31;3.70;;;2.08;;
24383;SDS011;12504;52.870;8.798;2024-02-16T07:53:56;4.72;;;2.22;;
24383;SDS011;12504;52.870;8.798;2024-02-16T07:56:22;4.47;;;1.73;;
24383;SDS011;12504;52.870;8.798;2024-02-16T07:58:48;3.75;;;1.60;;
24383;SDS011;12504;52.870;8.798;2024-02-16T08:01:13;4.28;;;1.50;;
24383;SDS011;12504;52.870;8.798;2024-02-16T08:03:42;6.85;;;2.03;;
24383;SDS011;12504;52.870;8.798;2024-02-16T08:06:07;4.40;;;2.13;;
24383;SDS011;12504;52.870;8.798;2024-02-16T08:08:33;5.05;;;2.13;;
24383;SDS011;12504;52.870;8.798;2024-02-16T08:10:58;3.10;;;2.00;;
24383;SDS011;12504;52.870;8.798;2024-02-16T08:13:24;3.53;;;2.05;;
24383;SDS011;12504;52.870;8.798;2024-02-16T08:15:50;5.93;;;2.28;;
24383;SDS011;12504;52.870;8.798;2024-02-16T08:18:17;5.25;;;2.10;;
24383;SDS011;12504;52.870;8.798;2024-02-16T08:20:43;4.78;;;1.70;;
24383;SDS011;12504;52.870;8.798;2024-02-16T08:23:08;3.40;;;2.25;;
24383;SDS011;12504;52.870;8.798;2024-02-16T08:25:34;3.65;;;1.40;;
24383;SDS011;12504;52.870;8.798;2024-02-16T08:28:00;4.97;;;1.42;;
24383;SDS011;12504;52.870;8.798;2024-02-16T08:30:26;3.50;;;1.58;;
24383;SDS011;12504;52.870;8.798;2024-02-16T08:32:52;2.55;;;1.63;;
24383;SDS011;12504;52.870;8.798;2024-02-16T08:35:19;3.08;;;1.80;;
24383;SDS011;12504;52.870;8.798;2024-02-16T08:37:44;4.22;;;1.65;;
24383;SDS011;12504;52.870;8.798;2024-02-16T08:40:12;4.40;;;2.05;;
24383;SDS011;12504;52.870;8.798;2024-02-16T08:42:40;3.15;;;1.45;;
24383;SDS011;12504;52.870;8.798;2024-02-16T08:45:08;4.70;;;1.75;;
24383;SDS011;12504;52.870;8.798;2024-02-16T08:47:35;2.10;;;1.50;;
24383;SDS011;12504;52.870;8.798;2024-02-16T08:50:00;3.33;;;1.73;;
24383;SDS011;12504;52.870;8.798;2024-02-16T08:52:26;2.30;;;1.33;;
24383;SDS011;12504;52.870;8.798;2024-02-16T08:54:52;3.75;;;1.65;;
24383;SDS011;12504;52.870;8.798;2024-02-16T08:57:17;3.88;;;1.70;;
24383;SDS011;12504;52.870;8.798;2024-02-16T08:59:43;4.78;;;2.60;;
24383;SDS011;12504;52.870;8.798;2024-02-16T09:02:09;2.72;;;1.67;;
24383;SDS011;12504;52.870;8.798;2024-02-16T09:04:35;1.73;;;1.38;;
24383;SDS011;12504;52.870;8.798;2024-02-16T09:07:01;3.95;;;1.50;;
24383;SDS011;12504;52.870;8.798;2024-02-16T09:09:27;5.70;;;1.60;;
24383;SDS011;12504;52.870;8.798;2024-02-16T09:11:53;6.82;;;1.65;;
24383;SDS011;12504;52.870;8.798;2024-02-16T09:14:19;4.43;;;1.77;;
24383;SDS011;12504;52.870;8.798;2024-02-16T09:16:45;4.65;;;1.88;;
24383;SDS011;12504;52.870;8.798;2024-02-16T09:19:13;4.28;;;2.25;;
24383;SDS011;12504;52.870;8.798;2024-02-16T09:21:39;2.25;;;1.50;;
24383;SDS011;12504;52.870;8.798;2024-02-16T09:24:04;3.95;;;1.85;;
24383;SDS011;12504;52.870;8.798;2024-02-16T09:26:35;4.68;;;1.90;;
24383;SDS011;12504;52.870;8.798;2024-02-16T09:29:04;2.95;;;2.38;;
24383;SDS011;12504;52.870;8.798;2024-02-16T09:31:29;4.20;;;1.73;;
24383;SDS011;12504;52.870;8.798;2024-02-16T09:33:55;3.50;;;2.13;;
24383;SDS011;12504;52.870;8.798;2024-02-16T09:36:21;2.88;;;1.70;;
24383;SDS011;12504;52.870;8.798;2024-02-16T09:38:48;3.40;;;2.08;;
24383;SDS011;12504;52.870;8.798;2024-02-16T09:41:14;2.40;;;1.58;;
24383;SDS011;12504;52.870;8.798;2024-02-16T09:43:41;5.65;;;1.75;;
24383;SDS011;12504;52.870;8.798;2024-02-16T09:46:07;6.28;;;2.38;;
24383;SDS011;12504;52.870;8.798;2024-02-16T09:48:33;3.40;;;1.98;;
24383;SDS011;12504;52.870;8.798;2024-02-16T09:51:00;6.40;;;2.25;;
24383;SDS011;12504;52.870;8.798;2024-02-16T09:53:26;6.72;;;2.30;;
24383;SDS011;12504;52.870;8.798;2024-02-16T09:55:53;6.07;;;2.03;;
24383;SDS011;12504;52.870;8.798;2024-02-16T09:58:19;3.92;;;1.80;;
24383;SDS011;12504;52.870;8.798;2024-02-16T10:00:52;4.20;;;2.15;;
24383;SDS011;12504;52.870;8.798;2024-02-16T10:03:23;3.38;;;1.88;;
24383;SDS011;12504;52.870;8.798;2024-02-16T10:06:03;4.45;;;2.35;;
24383;SDS011;12504;52.870;8.798;2024-02-16T10:08:33;5.60;;;2.00;;
24383;SDS011;12504;52.870;8.798;2024-02-16T10:11:03;4.85;;;2.10;;
24383;SDS011;12504;52.870;8.798;2024-02-16T10:13:30;3.78;;;2.10;;
24383;SDS011;12504;52.870;8.798;2024-02-16T10:16:06;4.97;;;1.90;;
24383;SDS011;12504;52.870;8.798;2024-02-16T10:18:34;3.60;;;1.50;;
24383;SDS011;12504;52.870;8.798;2024-02-16T10:21:03;4.40;;;2.80;;
24383;SDS011;12504;52.870;8.798;2024-02-16T10:23:29;2.92;;;1.88;;
24383;SDS011;12504;52.870;8.798;2024-02-16T10:25:55;4.28;;;1.95;;
24383;SDS011;12504;52.870;8.798;2024-02-16T10:28:21;3.45;;;1.83;;
24383;SDS011;12504;52.870;8.798;2024-02-16T10:30:52;4.22;;;1.95;;
24383;SDS011;12504;52.870;8.798;2024-02-16T10:33:24;3.70;;;2.20;;
24383;SDS011;12504;52.870;8.798;2024-02-16T10:35:50;4.38;;;2.25;;
24383;SDS011;12504;52.870;8.798;2024-02-16T10:38:17;7.00;;;2.47;;
24383;SDS011;12504;52.870;8.798;2024-02-16T10:40:45;2.75;;;1.90;;
24383;SDS011;12504;52.870;8.798;2024-02-16T10:43:13;5.45;;;2.25;;
24383;SDS011;12504;52.870;8.798;2024-02-16T10:45:40;3.17;;;1.80;;
24383;SDS011;12504;52.870;8.798;2024-02-16T10:48:06;9.75;;;2.70;;
24383;SDS011;12504;52.870;8.798;2024-02-16T10:50:33;3.97;;;2.13;;
24383;SDS011;12504;52.870;8.798;2024-02-16T10:53:11;4.85;;;2.38;;
24383;SDS011;12504;52.870;8.798;2024-02-16T10:55:48;4.93;;;2.33;;
24383;SDS011;12504;52.870;8.798;2024-02-16T10:58:14;7.10;;;2.40;;
24383;SDS011;12504;52.870;8.798;2024-02-16T11:00:52;4.78;;;2.50;;
24383;SDS011;12504;52.870;8.798;2024-02-16T11:03:21;4.68;;;2.22;;
24383;SDS011;12504;52.870;8.798;2024-02-16T11:05:49;6.78;;;2.53;;
24383;SDS011;12504;52.870;8.798;2024-02-16T11:08:16;4.47;;;2.40;;
24383;SDS011;12504;52.870;8.798;2024-02-16T11:10:56;5.00;;;2.70;;
24383;SDS011;12504;52.870;8.798;2024-02-16T11:13:26;7.55;;;2.63;;
24383;SDS011;12504;52.870;8.798;2024-02-16T11:15:59;6.60;;;2.60;;
24383;SDS011;12504;52.870;8.798;2024-02-16T11:18:32;5.95;;;3.08;;
24383;SDS011;12504;52.870;8.798;2024-02-16T11:21:02;9.05;;;3.15;;
24383;SDS011;12504;52.870;8.798;2024-02-16T11:23:29;10.68;;;3.15;;
24383;SDS011;12504;52.870;8.798;2024-02-16T11:26:05;7.15;;;2.88;;
24383;SDS011;12504;52.870;8.798;2024-02-16T11:28:36;8.45;;;2.28;;
24383;SDS011;12504;52.870;8.798;2024-02-16T11:31:04;7.18;;;3.15;;
24383;SDS011;12504;52.870;8.798;2024-02-16T11:33:30;3.58;;;2.72;;
24383;SDS011;12504;52.870;8.798;2024-02-16T11:36:00;4.55;;;2.72;;
24383;SDS011;12504;52.870;8.798;2024-02-16T11:38:31;7.78;;;3.30;;
24383;SDS011;12504;52.870;8.798;2024-02-16T11:41:04;10.20;;;3.50;;
24383;SDS011;12504;52.870;8.798;2024-02-16T11:43:33;8.88;;;2.92;;
24383;SDS011;12504;52.870;8.798;2024-02-16T11:45:59;5.88;;;3.17;;
24383;SDS011;12504;52.870;8.798;2024-02-16T11:48:35;5.38;;;3.10;;
24383;SDS011;12504;52.870;8.798;2024-02-16T11:51:02;7.15;;;3.85;;
24383;SDS011;12504;52.870;8.798;2024-02-16T11:53:28;9.40;;;4.28;;
24383;SDS011;12504;52.870;8.798;2024-02-16T11:55:54;9.63;;;3.20;;
24383;SDS011;12504;52.870;8.798;2024-02-16T11:58:20;6.82;;;3.28;;
24383;SDS011;12504;52.870;8.798;2024-02-16T12:00:47;10.35;;;3.80;;
24383;SDS011;12504;52.870;8.798;2024-02-16T12:05:51;9.13;;;2.70;;
24383;SDS011;12504;52.870;8.798;2024-02-16T12:08:18;5.00;;;3.30;;
24383;SDS011;12504;52.870;8.798;2024-02-16T12:10:46;8.82;;;3.13;;
24383;SDS011;12504;52.870;8.798;2024-02-16T12:13:12;6.68;;;3.20;;
24383;SDS011;12504;52.870;8.798;2024-02-16T12:15:38;8.13;;;3.33;;
24383;SDS011;12504;52.870;8.798;2024-02-16T12:18:04;8.27;;;3.50;;
24383;SDS011;12504;52.870;8.798;2024-02-16T12:20:30;6.22;;;3.08;;
24383;SDS011;12504;52.870;8.798;2024-02-16T12:22:58;7.25;;;3.63;;
24383;SDS011;12504;52.870;8.798;2024-02-16T12:25:27;7.75;;;4.40;;
24383;SDS011;12504;52.870;8.798;2024-02-16T12:27:52;7.50;;;3.35;;
24383;SDS011;12504;52.870;8.798;2024-02-16T12:30:18;7.95;;;3.50;;
24383;SDS011;12504;52.870;8.798;2024-02-16T12:32:44;4.50;;;3.00;;
24383;SDS011;12504;52.870;8.798;2024-02-16T12:35:10;6.70;;;2.75;;
24383;SDS011;12504;52.870;8.798;2024-02-16T12:37:35;6.95;;;3.08;;
24383;SDS011;12504;52.870;8.798;2024-02-16T12:40:02;8.07;;;3.20;;
24383;SDS011;12504;52.870;8.798;2024-02-16T12:42:28;5.13;;;3.13;;
24383;SDS011;12504;52.870;8.798;2024-02-16T12:44:54;5.53;;;3.33;;
24383;SDS011;12504;52.870;8.798;2024-02-16T12:47:20;6.32;;;3.33;;
24383;SDS011;12504;52.870;8.798;2024-02-16T12:49:45;9.95;;;3.60;;
24383;SDS011;12504;52.870;8.798;2024-02-16T12:52:11;7.28;;;3.80;;
24383;SDS011;12504;52.870;8.798;2024-02-16T12:54:45;5.10;;;2.55;;
24383;SDS011;12504;52.870;8.798;2024-02-16T12:57:12;10.57;;;3.78;;
24383;SDS011;12504;52.870;8.798;2024-02-16T12:59:38;6.15;;;3.65;;
24383;SDS011;12504;52.870;8.798;2024-02-16T13:02:04;5.43;;;3.20;;
24383;SDS011;12504;52.870;8.798;2024-02-16T13:04:29;8.93;;;3.67;;
24383;SDS011;12504;52.870;8.798;2024-02-16T13:06:57;8.25;;;3.20;;
24383;SDS011;12504;52.870;8.798;2024-02-16T13:09:23;5.45;;;4.20;;
24383;SDS011;12504;52.870;8.798;2024-02-16T13:11:49;8.45;;;4.10;;
24383;SDS011;12504;52.870;8.798;2024-02-16T13:14:19;6.80;;;3.92;;
24383;SDS011;12504;52.870;8.798;2024-02-16T13:16:45;6.32;;;4.00;;
24383;SDS011;12504;52.870;8.798;2024-02-16T13:19:12;8.05;;;4.60;;
24383;SDS011;12504;52.870;8.798;2024-02-16T13:21:38;7.20;;;4.55;;
24383;SDS011;12504;52.870;8.798;2024-02-16T13:24:04;9.57;;;4.70;;
24383;SDS011;12504;52.870;8.798;2024-02-16T13:26:31;12.38;;;4.50;;
24383;SDS011;12504;52.870;8.798;2024-02-16T13:28:57;6.68;;;3.60;;
24383;SDS011;12504;52.870;8.798;2024-02-16T13:31:22;7.88;;;3.83;;
24383;SDS011;12504;52.870;8.798;2024-02-16T13:33:49;16.90;;;5.05;;
24383;SDS011;12504;52.870;8.798;2024-02-16T13:36:16;7.85;;;4.18;;
24383;SDS011;12504;52.870;8.798;2024-02-16T13:38:41;8.27;;;4.25;;
24383;SDS011;12504;52.870;8.798;2024-02-16T13:41:07;10.57;;;4.25;;
24383;SDS011;12504;52.870;8.798;2024-02-16T13:43:32;6.05;;;4.15;;
24383;SDS011;12504;52.870;8.798;2024-02-16T13:45:58;10.18;;;4.68;;
24383;SDS011;12504;52.870;8.798;2024-02-16T13:48:25;14.02;;;5.30;;
24383;SDS011;12504;52.870;8.798;2024-02-16T13:50:50;9.43;;;5.00;;
24383;SDS011;12504;52.870;8.798;2024-02-16T13:53:16;7.97;;;4.78;;
24383;SDS011;12504;52.870;8.798;2024-02-16T13:55:43;10.25;;;4.75;;
24383;SDS011;12504;52.870;8.798;2024-02-16T13:58:09;7.75;;;5.05;;
24383;SDS011;12504;52.870;8.798;2024-02-16T14:00:36;10.73;;;5.47;;
24383;SDS011;12504;52.870;8.798;2024-02-16T14:03:03;11.00;;;5.63;;
24383;SDS011;12504;52.870;8.798;2024-02-16T14:05:31;13.02;;;5.93;;
24383;SDS011;12504;52.870;8.798;2024-02-16T14:07:57;11.35;;;6.38;;
24383;SDS011;12504;52.870;8.798;2024-02-16T14:10:22;16.40;;;6.53;;
24383;SDS011;12504;52.870;8.798;2024-02-16T14:12:48;14.80;;;6.20;;
24383;SDS011;12504;52.870;8.798;2024-02-16T14:15:13;9.77;;;5.50;;
24383;SDS011;12504;52.870;8.798;2024-02-16T14:17:41;12.13;;;7.28;;
24383;SDS011;12504;52.870;8.798;2024-02-16T14:20:07;12.90;;;7.68;;
24383;SDS011;12504;52.870;8.798;2024-02-16T14:22:33;13.65;;;7.32;;
24383;SDS011;12504;52.870;8.798;2024-02-16T14:24:59;15.05;;;7.38;;
24383;SDS011;12504;52.870;8.798;2024-02-16T14:27:24;14.07;;;7.78;;
24383;SDS011;12504;52.870;8.798;2024-02-16T14:29:50;15.98;;;7.78;;
24383;SDS011;12504;52.870;8.798;2024-02-16T14:32:16;14.45;;;7.95;;
24383;SDS011;12504;52.870;8.798;2024-02-16T14:34:42;11.00;;;7.07;;
24383;SDS011;12504;52.870;8.798;2024-02-16T14:37:09;15.63;;;8.45;;
24383;SDS011;12504;52.870;8.798;2024-02-16T14:39:35;13.70;;;7.32;;
24383;SDS011;12504;52.870;8.798;2024-02-16T14:42:00;14.60;;;7.95;;
24383;SDS011;12504;52.870;8.798;2024-02-16T14:44:26;17.38;;;8.60;;